Time;durP1;ratioP1;P1;durP2;ratioP2;P2;SDS_P1;SDS_P2;PMS_P1;PMS_P2;Temp;Humidity;BMP_temperature;BMP_pressure;BME280_temperature;BME280_humidity;BME280_pressure;Samples;Min_cycle;Max_cycle;Signal;HPM_P1;HPM_P2
2021/07/05 00:00:19;;;;;;;6.18;1.20;;;16.50;99.90;;;;;;5047172;28;20412;-55
2021/07/05 00:02:44;;;;;;;3.60;1.20;;;16.50;99.90;;;;;;5051967;28;20393;-55
2021/07/05 00:05:12;;;;;;;4.13;1.20;;;16.40;99.90;;;;;;5042856;28;20374;-55
2021/07/05 00:07:38;;;;;;;4.50;1.30;;;16.40;99.90;;;;;;5052628;28;20470;-55
2021/07/05 00:10:06;;;;;;;3.63;1.15;;;16.50;99.90;;;;;;5030947;28;20401;-56
2021/07/05 00:12:32;;;;;;;4.00;1.33;;;16.50;99.90;;;;;;5049513;28;20548;-56
2021/07/05 00:15:00;;;;;;;4.60;1.10;;;16.50;99.90;;;;;;5056606;28;20452;-55
2021/07/05 00:17:26;;;;;;;3.63;1.20;;;16.50;99.90;;;;;;5055315;28;20396;-55
2021/07/05 00:19:52;;;;;;;4.43;1.38;;;16.50;99.90;;;;;;5059489;28;20411;-56
2021/07/05 00:22:17;;;;;;;3.80;1.17;;;16.60;99.90;;;;;;5055795;28;20870;-56
2021/07/05 00:24:43;;;;;;;6.93;1.40;;;16.60;99.90;;;;;;5049767;28;20862;-55
2021/07/05 00:27:08;;;;;;;5.45;1.40;;;16.70;99.90;;;;;;5050488;28;20836;-56
2021/07/05 00:29:34;;;;;;;4.70;1.40;;;16.70;99.90;;;;;;5049720;28;20405;-56
2021/07/05 00:32:00;;;;;;;4.18;1.30;;;16.70;99.90;;;;;;5045165;28;20467;-55
2021/07/05 00:34:25;;;;;;;4.53;1.30;;;16.60;99.90;;;;;;5067650;28;20384;-55
2021/07/05 00:36:51;;;;;;;4.10;1.30;;;16.60;99.90;;;;;;5070420;28;20858;-56
2021/07/05 00:39:17;;;;;;;4.60;1.30;;;16.50;99.90;;;;;;5060196;28;20912;-56
2021/07/05 00:41:42;;;;;;;3.60;1.20;;;16.50;99.90;;;;;;5049338;28;21025;-55
2021/07/05 00:44:08;;;;;;;4.90;1.50;;;16.60;99.90;;;;;;5050308;28;20712;-56
2021/07/05 00:46:33;;;;;;;4.13;1.33;;;16.70;99.90;;;;;;5049395;28;20878;-56
2021/07/05 00:48:59;;;;;;;4.15;1.50;;;16.80;99.90;;;;;;5050106;28;20378;-55
2021/07/05 00:51:25;;;;;;;6.53;1.40;;;16.80;99.90;;;;;;5049300;28;20409;-55
2021/07/05 00:53:52;;;;;;;5.68;1.70;;;16.90;99.90;;;;;;5051377;28;20409;-56
2021/07/05 00:56:17;;;;;;;4.40;1.35;;;16.80;99.90;;;;;;5060289;28;20467;-55
2021/07/05 00:58:43;;;;;;;3.73;1.40;;;16.90;99.90;;;;;;5052272;28;20548;-56
2021/07/05 01:01:09;;;;;;;4.53;1.60;;;16.90;99.90;;;;;;5069934;28;20383;-56
2021/07/05 01:03:35;;;;;;;3.70;1.30;;;17.10;99.90;;;;;;5060967;28;20377;-56
2021/07/05 01:06:02;;;;;;;4.68;1.30;;;17.10;99.90;;;;;;5049997;28;20373;-56
2021/07/05 01:08:29;;;;;;;4.07;1.40;;;17.00;99.90;;;;;;5058106;28;20391;-55
2021/07/05 01:10:55;;;;;;;3.90;1.50;;;17.10;99.90;;;;;;5069667;28;20411;-55
2021/07/05 01:13:21;;;;;;;5.37;1.50;;;17.10;99.90;;;;;;5069202;28;20382;-55
2021/07/05 01:15:46;;;;;;;3.87;1.40;;;17.10;99.90;;;;;;5069578;28;20856;-56
2021/07/05 01:18:12;;;;;;;5.80;2.00;;;17.20;99.90;;;;;;5069519;28;20410;-56
2021/07/05 01:20:40;;;;;;;3.90;1.50;;;17.10;99.90;;;;;;5068815;28;20441;-56
2021/07/05 01:23:08;;;;;;;4.40;1.90;;;17.20;99.90;;;;;;5069282;28;20475;-56
2021/07/05 01:25:35;;;;;;;4.33;1.60;;;17.20;99.90;;;;;;5068642;28;20384;-56
2021/07/05 01:28:01;;;;;;;4.45;1.40;;;17.20;99.90;;;;;;5069468;28;20407;-56
2021/07/05 01:30:27;;;;;;;4.10;1.70;;;17.10;99.90;;;;;;5068635;28;20490;-55
2021/07/05 01:32:59;;;;;;;4.90;1.90;;;17.10;99.90;;;;;;5051727;28;20738;-56
2021/07/05 01:35:27;;;;;;;4.40;1.63;;;17.20;99.90;;;;;;5058402;28;20427;-56
2021/07/05 01:37:54;;;;;;;4.90;1.73;;;17.20;99.90;;;;;;5067279;28;20395;-56
2021/07/05 01:40:20;;;;;;;4.00;1.60;;;15.70;99.90;;;;;;5049453;28;20447;-56
2021/07/05 01:42:51;;;;;;;5.00;1.83;;;17.20;99.90;;;;;;5052613;28;20376;-56
2021/07/05 01:45:29;;;;;;;4.70;1.80;;;17.30;99.90;;;;;;5069204;28;20438;-56
2021/07/05 01:47:55;;;;;;;4.68;1.63;;;17.30;99.90;;;;;;5069150;28;20444;-56
2021/07/05 01:50:22;;;;;;;4.80;1.83;;;17.30;99.90;;;;;;5068811;28;20415;-56
2021/07/05 01:52:49;;;;;;;4.20;1.60;;;17.40;99.90;;;;;;5052709;28;20440;-55
2021/07/05 01:55:17;;;;;;;4.20;1.60;;;17.40;99.90;;;;;;5049219;28;20392;-56
2021/07/05 01:57:42;;;;;;;4.05;1.50;;;17.40;99.90;;;;;;5042642;28;20879;-56
2021/07/05 02:00:13;;;;;;;4.20;1.80;;;17.40;99.90;;;;;;5031016;28;20377;-56
2021/07/05 02:02:39;;;;;;;4.50;1.80;;;17.50;99.90;;;;;;5048380;28;20381;-56
2021/07/05 02:05:10;;;;;;;5.50;1.95;;;17.50;99.90;;;;;;5031188;28;20724;-56
2021/07/05 02:07:36;;;;;;;5.00;2.00;;;17.50;99.90;;;;;;5048311;28;20463;-56
2021/07/05 02:10:06;;;;;;;5.32;1.80;;;17.50;99.90;;;;;;5048715;28;20824;-56
2021/07/05 02:12:32;;;;;;;4.40;1.88;;;17.50;99.90;;;;;;5048121;28;20393;-55
2021/07/05 02:14:57;;;;;;;4.60;1.80;;;17.50;99.90;;;;;;5055022;28;20853;-56
2021/07/05 02:17:23;;;;;;;6.23;2.30;;;17.40;99.90;;;;;;5068419;28;20383;-55
2021/07/05 02:19:49;;;;;;;5.83;2.00;;;17.40;99.90;;;;;;5067862;28;20484;-55
2021/07/05 02:22:14;;;;;;;4.10;1.60;;;17.40;99.90;;;;;;5068375;28;20388;-56
2021/07/05 02:24:40;;;;;;;8.80;1.80;;;17.40;99.90;;;;;;5067958;28;20379;-56
2021/07/05 02:27:06;;;;;;;4.90;1.80;;;17.40;99.90;;;;;;5068283;28;20383;-56
2021/07/05 02:29:31;;;;;;;5.00;1.60;;;17.50;99.90;;;;;;5049990;28;20404;-55
2021/07/05 02:31:57;;;;;;;4.20;1.40;;;17.40;99.90;;;;;;5069070;28;20754;-56
2021/07/05 02:34:23;;;;;;;6.05;1.70;;;17.50;99.90;;;;;;5068904;28;20805;-55
2021/07/05 02:36:50;;;;;;;4.85;1.70;;;17.50;99.90;;;;;;5072308;28;20455;-56
2021/07/05 02:39:17;;;;;;;4.72;1.90;;;17.60;99.90;;;;;;5072347;28;20383;-56
2021/07/05 02:41:43;;;;;;;6.78;2.47;;;17.60;99.90;;;;;;5071693;28;20905;-55
2021/07/05 02:44:09;;;;;;;5.03;1.90;;;17.60;99.90;;;;;;5072397;28;20477;-56
2021/07/05 02:46:35;;;;;;;4.35;1.75;;;17.60;99.90;;;;;;5053738;28;20403;-56
2021/07/05 02:49:01;;;;;;;5.60;1.50;;;17.70;99.90;;;;;;5072304;28;20379;-56
2021/07/05 02:51:27;;;;;;;5.10;1.80;;;17.70;99.90;;;;;;5071339;28;20404;-55
2021/07/05 02:53:52;;;;;;;5.77;1.40;;;17.70;99.90;;;;;;5072678;28;20444;-56
2021/07/05 02:56:18;;;;;;;4.00;1.60;;;17.70;99.90;;;;;;5072208;28;20439;-56
2021/07/05 02:58:44;;;;;;;4.97;1.90;;;17.70;99.90;;;;;;5071132;28;20463;-55
2021/07/05 03:01:10;;;;;;;5.77;1.60;;;17.60;99.90;;;;;;5072094;28;20802;-57
2021/07/05 03:03:35;;;;;;;4.75;1.73;;;17.60;99.90;;;;;;5071247;28;20376;-56
2021/07/05 03:06:01;;;;;;;5.00;1.52;;;17.60;99.90;;;;;;5071933;28;20975;-56
2021/07/05 03:08:27;;;;;;;5.15;1.55;;;17.70;99.90;;;;;;5071110;28;20395;-55
2021/07/05 03:10:54;;;;;;;4.67;1.70;;;17.70;99.90;;;;;;5071479;28;20412;-56
2021/07/05 03:13:20;;;;;;;4.35;1.77;;;17.80;99.90;;;;;;5071834;28;20384;-56
2021/07/05 03:15:47;;;;;;;4.27;1.70;;;17.80;99.90;;;;;;5071103;28;20376;-56
2021/07/05 03:18:13;;;;;;;5.32;1.60;;;17.80;99.90;;;;;;5071786;28;20553;-56
2021/07/05 03:20:42;;;;;;;4.72;1.65;;;17.80;99.90;;;;;;5053018;28;20392;-55
2021/07/05 03:23:10;;;;;;;5.07;1.60;;;17.70;99.90;;;;;;5071567;28;20430;-56
2021/07/05 03:25:37;;;;;;;4.88;2.00;;;17.70;99.90;;;;;;5070792;28;20731;-56
2021/07/05 03:28:05;;;;;;;4.10;1.55;;;17.70;99.90;;;;;;5071534;28;20466;-56
2021/07/05 03:30:33;;;;;;;5.90;1.60;;;17.70;99.90;;;;;;5070935;28;20399;-56
2021/07/05 03:32:59;;;;;;;5.40;1.70;;;17.70;99.90;;;;;;5070856;28;20935;-56
2021/07/05 03:35:26;;;;;;;4.53;2.00;;;17.60;99.90;;;;;;5070901;28;20865;-55
2021/07/05 03:37:53;;;;;;;5.53;1.80;;;17.60;99.90;;;;;;5070758;28;20407;-55
2021/07/05 03:40:26;;;;;;;5.15;1.60;;;17.70;99.90;;;;;;5070944;28;20391;-56
2021/07/05 03:42:52;;;;;;;4.03;1.70;;;17.80;99.90;;;;;;5070944;28;20372;-56
2021/07/05 03:45:21;;;;;;;6.87;1.80;;;17.80;99.90;;;;;;5071414;28;20699;-56
2021/07/05 03:47:47;;;;;;;4.20;1.70;;;17.80;99.90;;;;;;5051335;28;20387;-56
2021/07/05 03:50:14;;;;;;;4.75;1.60;;;17.80;99.90;;;;;;5070922;28;20512;-57
2021/07/05 03:52:40;;;;;;;6.47;1.73;;;17.70;99.90;;;;;;5070462;28;20576;-56
2021/07/05 03:55:08;;;;;;;4.70;1.90;;;17.60;99.90;;;;;;5071076;28;20474;-56
2021/07/05 03:57:33;;;;;;;5.10;2.20;;;17.60;99.90;;;;;;5070143;28;20376;-56
2021/07/05 03:59:59;;;;;;;4.70;1.73;;;17.60;99.90;;;;;;5070956;28;20399;-55
2021/07/05 04:02:25;;;;;;;5.13;2.00;;;17.60;99.90;;;;;;5070840;28;20368;-55
2021/07/05 04:04:54;;;;;;;5.20;1.90;;;17.60;99.90;;;;;;5070520;28;20384;-56
2021/07/05 04:07:20;;;;;;;9.55;2.00;;;17.70;99.90;;;;;;5070890;28;20376;-56
2021/07/05 04:09:46;;;;;;;4.95;2.00;;;17.70;99.90;;;;;;5070143;28;20395;-56
2021/07/05 04:12:13;;;;;;;5.20;1.80;;;17.70;99.90;;;;;;5035863;28;20935;-56
2021/07/05 04:14:40;;;;;;;4.50;1.80;;;17.70;99.90;;;;;;5030153;28;20387;-55
2021/07/05 04:17:07;;;;;;;5.00;1.80;;;17.70;99.90;;;;;;5030816;28;20383;-56
2021/07/05 04:19:33;;;;;;;4.22;1.50;;;17.70;99.90;;;;;;5029996;28;20382;-56
2021/07/05 04:21:58;;;;;;;4.60;1.77;;;17.60;99.90;;;;;;5030579;28;20427;-56
2021/07/05 04:24:24;;;;;;;5.37;2.20;;;17.70;99.90;;;;;;5030744;28;20438;-55
2021/07/05 04:26:50;;;;;;;5.90;1.80;;;17.70;99.90;;;;;;5029904;28;20395;-56
2021/07/05 04:29:16;;;;;;;5.35;1.92;;;17.80;99.90;;;;;;5030585;28;20761;-57
2021/07/05 04:31:41;;;;;;;4.40;1.63;;;17.80;99.90;;;;;;5011953;28;20391;-56
2021/07/05 04:34:07;;;;;;;5.80;1.75;;;17.80;99.90;;;;;;5030778;28;20486;-56
2021/07/05 04:36:35;;;;;;;7.40;1.97;;;17.80;99.90;;;;;;5029526;28;20472;-55
2021/07/05 04:39:01;;;;;;;4.40;1.63;;;17.80;99.90;;;;;;5030212;28;20900;-55
2021/07/05 04:41:27;;;;;;;6.00;1.80;;;17.80;99.90;;;;;;5011792;28;20478;-55
2021/07/05 04:43:52;;;;;;;4.90;1.58;;;17.90;99.90;;;;;;5029830;28;20470;-55
2021/07/05 04:46:20;;;;;;;5.72;1.60;;;17.90;99.90;;;;;;5012458;28;20786;-55
2021/07/05 04:48:45;;;;;;;5.32;2.08;;;18.00;99.90;;;;;;5038393;28;20894;-55
2021/07/05 04:51:13;;;;;;;4.60;1.80;;;18.10;99.90;;;;;;5055238;28;20906;-55
2021/07/05 04:53:39;;;;;;;5.95;1.80;;;18.20;99.90;;;;;;5061929;28;20488;-55
2021/07/05 04:56:05;;;;;;;5.60;1.90;;;18.10;99.90;;;;;;5066139;28;20465;-56
2021/07/05 04:58:31;;;;;;;5.75;1.88;;;18.20;99.90;;;;;;5067453;28;20466;-55
2021/07/05 05:00:56;;;;;;;4.30;1.80;;;18.30;99.90;;;;;;5056356;28;20864;-55
2021/07/05 05:03:22;;;;;;;6.70;1.70;;;18.40;99.90;;;;;;5069613;28;20379;-55
2021/07/05 05:05:48;;;;;;;6.07;1.70;;;18.50;99.90;;;;;;5063346;28;20491;-55
2021/07/05 05:08:13;;;;;;;6.90;1.70;;;18.70;99.90;;;;;;5057670;28;20422;-53
2021/07/05 05:10:40;;;;;;;4.23;1.60;;;18.70;99.90;;;;;;5068830;28;20468;-53
2021/07/05 05:13:06;;;;;;;6.20;1.70;;;18.80;99.90;;;;;;5069634;28;20862;-53
2021/07/05 05:15:32;;;;;;;5.30;2.00;;;18.80;99.90;;;;;;5048832;28;20512;-53
2021/07/05 05:17:58;;;;;;;5.30;1.60;;;19.00;99.90;;;;;;5049519;28;20469;-53
2021/07/05 05:20:24;;;;;;;6.25;1.90;;;19.00;99.90;;;;;;5049388;28;20433;-54
2021/07/05 05:22:51;;;;;;;5.30;1.60;;;18.90;99.90;;;;;;5048776;28;20396;-53
2021/07/05 05:25:18;;;;;;;4.60;1.80;;;18.90;99.90;;;;;;5066912;28;20624;-53
2021/07/05 05:27:45;;;;;;;4.55;1.60;;;18.90;99.90;;;;;;5068932;28;20388;-53
2021/07/05 05:30:13;;;;;;;4.00;1.50;;;19.10;99.90;;;;;;5069457;28;20418;-54
2021/07/05 05:32:39;;;;;;;4.55;1.80;;;19.20;99.90;;;;;;5050416;28;20877;-53
2021/07/05 05:35:06;;;;;;;4.72;1.70;;;19.20;99.90;;;;;;5069476;28;20388;-53
2021/07/05 05:37:32;;;;;;;5.00;1.88;;;19.30;99.90;;;;;;5068829;28;20372;-54
2021/07/05 05:39:57;;;;;;;4.90;1.70;;;19.20;99.90;;;;;;5069315;28;20388;-55
2021/07/05 05:42:24;;;;;;;6.00;1.60;;;19.40;99.90;;;;;;5051440;28;20400;-54
2021/07/05 05:44:49;;;;;;;7.72;2.10;;;19.40;99.90;;;;;;5068752;28;20383;-54
2021/07/05 05:47:15;;;;;;;5.00;2.00;;;19.40;99.90;;;;;;5054959;28;20385;-55
2021/07/05 05:49:41;;;;;;;4.40;1.70;;;19.40;99.90;;;;;;5047772;28;20485;-54
2021/07/05 05:52:07;;;;;;;4.32;1.73;;;19.40;99.90;;;;;;5037338;28;20443;-55
2021/07/05 05:54:33;;;;;;;5.70;1.70;;;19.40;99.90;;;;;;5041098;28;20816;-54
2021/07/05 05:56:59;;;;;;;6.20;1.80;;;19.40;99.90;;;;;;5033654;28;20777;-54
2021/07/05 05:59:24;;;;;;;4.97;1.70;;;19.30;99.90;;;;;;5029715;28;20448;-54
2021/07/05 06:01:50;;;;;;;5.45;1.88;;;19.10;99.90;;;;;;5048154;28;20388;-54
2021/07/05 06:04:20;;;;;;;5.47;1.80;;;19.00;99.90;;;;;;5049060;28;20430;-54
2021/07/05 06:06:46;;;;;;;4.78;1.80;;;19.10;99.90;;;;;;5048042;28;20874;-54
2021/07/05 06:09:13;;;;;;;5.47;1.77;;;19.20;99.90;;;;;;5042410;28;20424;-54
2021/07/05 06:11:40;;;;;;;6.43;2.38;;;19.20;99.90;;;;;;5041114;28;20406;-54
2021/07/05 06:14:07;;;;;;;7.40;2.10;;;19.20;99.90;;;;;;5051354;28;20468;-54
2021/07/05 06:16:34;;;;;;;4.55;1.83;;;19.10;99.90;;;;;;5052216;28;20807;-54
2021/07/05 06:19:00;;;;;;;7.45;1.63;;;19.10;99.90;;;;;;5063460;28;20407;-54
2021/07/05 06:21:27;;;;;;;4.67;1.70;;;19.20;99.90;;;;;;5073381;28;20789;-54
2021/07/05 06:23:54;;;;;;;5.80;1.67;;;19.00;99.90;;;;;;5072862;28;20395;-54
2021/07/05 06:26:20;;;;;;;7.43;1.70;;;18.90;99.90;;;;;;5061425;28;20393;-54
2021/07/05 06:28:46;;;;;;;5.00;1.50;;;18.80;99.90;;;;;;5051872;28;20439;-54
2021/07/05 06:31:11;;;;;;;6.50;1.60;;;17.40;99.90;;;;;;5034313;28;20416;-54
2021/07/05 06:33:37;;;;;;;5.50;1.70;;;18.70;99.90;;;;;;5051655;28;20458;-55
2021/07/05 06:36:04;;;;;;;4.80;1.90;;;18.80;99.90;;;;;;5052268;28;20927;-55
2021/07/05 06:38:31;;;;;;;4.97;2.00;;;18.90;99.90;;;;;;5051712;28;20411;-54
2021/07/05 06:40:57;;;;;;;4.20;1.55;;;18.80;99.90;;;;;;5052554;28;20470;-56
2021/07/05 06:43:23;;;;;;;5.80;2.25;;;19.00;99.90;;;;;;5052390;28;20855;-52
2021/07/05 06:45:49;;;;;;;5.10;1.95;;;18.80;99.90;;;;;;5030656;28;20394;-51
2021/07/05 06:48:15;;;;;;;5.93;1.70;;;19.00;99.90;;;;;;5043171;28;20391;-52
2021/07/05 06:50:41;;;;;;;4.60;1.80;;;19.00;99.90;;;;;;5039745;28;20501;-53
2021/07/05 06:53:07;;;;;;;5.60;1.90;;;19.10;99.90;;;;;;5040560;28;20383;-53
2021/07/05 06:55:33;;;;;;;7.75;2.30;;;19.40;99.90;;;;;;5042332;28;20431;-53
2021/07/05 06:57:59;;;;;;;5.10;1.80;;;19.40;99.90;;;;;;5022236;28;20386;-52
2021/07/05 07:00:28;;;;;;;4.45;1.67;;;19.70;99.90;;;;;;5043307;28;20400;-52
2021/07/05 07:02:55;;;;;;;5.05;1.77;;;19.90;99.90;;;;;;5051933;28;20382;-54
2021/07/05 07:05:21;;;;;;;4.90;1.90;;;20.10;99.90;;;;;;5050451;28;20393;-53
2021/07/05 07:07:53;;;;;;;5.30;1.88;;;20.20;99.90;;;;;;5041008;28;20404;-52
2021/07/05 07:10:21;;;;;;;5.03;2.00;;;20.30;99.90;;;;;;5039460;28;20411;-54
2021/07/05 07:12:48;;;;;;;5.50;1.85;;;19.90;99.90;;;;;;5040035;28;20402;-52
2021/07/05 07:15:18;;;;;;;5.32;1.80;;;19.70;99.90;;;;;;5039789;28;20886;-52
2021/07/05 07:17:54;;;;;;;5.95;1.80;;;19.60;99.90;;;;;;5052307;28;20399;-52
2021/07/05 07:20:20;;;;;;;5.50;2.00;;;19.60;99.90;;;;;;5039252;28;20847;-52
2021/07/05 07:22:46;;;;;;;4.87;1.70;;;19.60;99.90;;;;;;5030852;28;20460;-53
2021/07/05 07:25:14;;;;;;;5.60;1.80;;;19.80;99.90;;;;;;5031344;28;20872;-52
2021/07/05 07:27:40;;;;;;;4.05;1.80;;;19.90;99.90;;;;;;5030982;28;20457;-52
2021/07/05 07:30:08;;;;;;;5.82;1.60;;;19.90;99.90;;;;;;5036636;28;20416;-54
2021/07/05 07:32:34;;;;;;;4.50;1.53;;;19.80;99.90;;;;;;5049652;28;20764;-54
2021/07/05 07:35:00;;;;;;;5.78;1.80;;;19.80;99.90;;;;;;5045026;28;20386;-52
2021/07/05 07:37:26;;;;;;;4.63;1.70;;;19.90;99.90;;;;;;5042927;28;20488;-53
2021/07/05 07:40:13;;;;;;;5.13;1.75;;;20.10;99.90;;;;;;5039400;28;20421;-53
2021/07/05 07:42:39;;;;;;;4.20;1.50;;;20.10;99.90;;;;;;5041003;28;20393;-54
2021/07/05 07:45:05;;;;;;;5.90;1.80;;;20.20;99.90;;;;;;5022709;28;20399;-54
2021/07/05 07:47:31;;;;;;;4.45;1.70;;;20.10;99.90;;;;;;5039769;28;20388;-58
2021/07/05 07:49:58;;;;;;;4.90;2.10;;;20.30;99.90;;;;;;5043752;28;20425;-53
2021/07/05 07:52:26;;;;;;;6.13;1.80;;;20.50;99.90;;;;;;5039300;28;20466;-54
2021/07/05 07:54:52;;;;;;;5.20;1.60;;;20.50;99.90;;;;;;5040998;28;20385;-54
2021/07/05 07:57:18;;;;;;;5.72;1.80;;;20.60;99.90;;;;;;5035643;28;20430;-57
2021/07/05 07:59:44;;;;;;;4.40;1.67;;;20.10;99.90;;;;;;5035153;28;20381;-55
2021/07/05 08:02:11;;;;;;;4.75;1.65;;;20.10;99.90;;;;;;5023622;28;20391;-55
2021/07/05 08:04:37;;;;;;;5.13;1.80;;;20.20;99.90;;;;;;5028961;28;20393;-54
2021/07/05 08:07:03;;;;;;;4.80;1.50;;;20.20;99.90;;;;;;5050795;28;20378;-55
2021/07/05 08:09:29;;;;;;;5.03;1.70;;;19.90;99.90;;;;;;5032695;28;20470;-55
2021/07/05 08:11:55;;;;;;;5.15;1.60;;;20.00;99.90;;;;;;5051793;28;20485;-55
2021/07/05 08:14:20;;;;;;;4.90;1.67;;;20.10;99.90;;;;;;5050214;28;20386;-55
2021/07/05 08:16:46;;;;;;;8.35;2.00;;;20.20;99.90;;;;;;5050441;28;20380;-55
2021/07/05 08:19:12;;;;;;;4.30;1.80;;;20.30;99.90;;;;;;5069964;28;20742;-56
2021/07/05 08:21:38;;;;;;;5.20;1.98;;;20.40;99.90;;;;;;5060949;28;20400;-56
2021/07/05 08:24:07;;;;;;;4.95;1.77;;;20.50;99.90;;;;;;5050017;28;20397;-56
2021/07/05 08:26:32;;;;;;;6.53;2.00;;;20.80;99.90;;;;;;5050195;28;20377;-56
2021/07/05 08:28:58;;;;;;;5.50;1.70;;;21.00;99.90;;;;;;5050108;28;20393;-56
2021/07/05 08:31:24;;;;;;;5.50;2.03;;;21.20;99.90;;;;;;5050285;28;20432;-57
2021/07/05 08:33:51;;;;;;;4.25;1.80;;;21.30;99.90;;;;;;5050146;28;20390;-57
2021/07/05 08:36:18;;;;;;;4.45;1.70;;;21.20;99.90;;;;;;5070296;28;20380;-57
2021/07/05 08:38:45;;;;;;;7.88;1.92;;;21.00;99.90;;;;;;5063655;28;20945;-57
2021/07/05 08:41:12;;;;;;;5.83;1.80;;;21.00;99.90;;;;;;5027688;28;20478;-57
2021/07/05 08:43:41;;;;;;;4.30;1.80;;;21.00;99.90;;;;;;5046195;28;20380;-57
2021/07/05 08:46:08;;;;;;;5.32;1.70;;;21.00;99.90;;;;;;5048383;28;20507;-57
2021/07/05 08:48:38;;;;;;;4.77;1.63;;;20.60;99.90;;;;;;5047511;28;20377;-56
2021/07/05 08:51:08;;;;;;;5.60;1.73;;;20.50;99.90;;;;;;5047183;28;20429;-56
2021/07/05 08:53:34;;;;;;;4.97;1.50;;;20.40;99.90;;;;;;5049444;28;20417;-56
2021/07/05 08:56:00;;;;;;;5.63;1.80;;;20.30;99.90;;;;;;5049164;28;20752;-54
2021/07/05 08:58:26;;;;;;;4.60;1.65;;;20.30;99.90;;;;;;5049707;28;20386;-58
2021/07/05 09:00:52;;;;;;;5.40;1.90;;;21.20;99.90;;;;;;5028453;28;20871;-57
2021/07/05 09:03:23;;;;;;;4.40;1.40;;;20.30;99.90;;;;;;5031449;28;20796;-57
2021/07/05 09:06:15;;;;;;;6.68;1.77;;;20.30;99.90;;;;;;5030393;28;20927;-57
2021/07/05 09:08:44;;;;;;;5.00;2.05;;;20.20;99.90;;;;;;5037657;28;20488;-55
2021/07/05 09:11:35;;;;;;;5.65;1.90;;;20.00;99.90;;;;;;5049104;28;20409;-55
2021/07/05 09:14:00;;;;;;;5.45;1.90;;;20.20;99.90;;;;;;5046574;28;20374;-55
2021/07/05 09:16:32;;;;;;;5.90;1.60;;;20.30;99.90;;;;;;5049592;28;20747;-56
2021/07/05 09:18:58;;;;;;;5.28;2.00;;;20.10;99.90;;;;;;5046257;28;20447;-56
2021/07/05 09:21:32;;;;;;;4.75;1.90;;;20.20;99.90;;;;;;5053756;28;20436;-57
2021/07/05 09:24:03;;;;;;;4.20;1.70;;;19.90;99.90;;;;;;5045586;28;20945;-56
2021/07/05 09:26:40;;;;;;;4.47;1.80;;;20.00;99.90;;;;;;5048841;28;20437;-56
2021/07/05 09:29:20;;;;;;;6.38;2.40;;;20.10;99.90;;;;;;5048134;28;20382;-56
2021/07/05 09:31:57;;;;;;;5.90;2.10;;;20.00;99.90;;;;;;5046856;28;20468;-56
2021/07/05 09:34:30;;;;;;;6.00;2.15;;;20.00;99.90;;;;;;5049353;28;20867;-57
2021/07/05 09:37:32;;;;;;;4.80;1.80;;;20.00;99.90;;;;;;5049570;28;20400;-57
2021/07/05 09:40:01;;;;;;;5.50;1.65;;;20.00;99.90;;;;;;4969011;28;20457;-56
2021/07/05 09:42:27;;;;;;;4.03;1.45;;;19.90;99.90;;;;;;5022355;28;20406;-56
2021/07/05 09:44:55;;;;;;;5.20;1.30;;;19.90;99.90;;;;;;5036318;28;20958;-55
2021/07/05 09:47:24;;;;;;;4.05;1.00;;;19.90;99.90;;;;;;5041023;28;20832;-55
2021/07/05 09:49:51;;;;;;;5.25;1.20;;;19.70;99.90;;;;;;5032671;28;20408;-55
2021/07/05 09:52:24;;;;;;;6.20;1.10;;;19.70;99.90;;;;;;5048162;28;20484;-56
2021/07/05 09:54:53;;;;;;;4.30;1.13;;;19.90;99.90;;;;;;5047665;28;20386;-55
2021/07/05 09:57:30;;;;;;;4.25;0.95;;;19.80;99.90;;;;;;5048688;28;20476;-57
2021/07/05 10:00:24;;;;;;;4.00;1.10;;;19.90;99.90;;;;;;5048127;28;20388;-56
2021/07/05 10:03:04;;;;;;;4.78;1.20;;;20.00;99.90;;;;;;5056158;28;20465;-56
2021/07/05 10:05:44;;;;;;;4.60;1.40;;;20.00;99.90;;;;;;5048365;28;20703;-56
2021/07/05 10:08:12;;;;;;;4.90;1.40;;;20.10;99.90;;;;;;5052321;28;20432;-56
2021/07/05 10:10:40;;;;;;;4.10;1.42;;;19.90;99.90;;;;;;5054860;28;20411;-55
2021/07/05 10:13:10;;;;;;;4.80;1.50;;;19.90;99.90;;;;;;5054556;28;20440;-56
2021/07/05 10:15:38;;;;;;;4.47;1.58;;;19.70;99.90;;;;;;5058150;28;20391;-55
2021/07/05 10:18:05;;;;;;;6.20;1.57;;;21.30;99.90;;;;;;5048656;28;20426;-56
2021/07/05 10:20:35;;;;;;;4.10;1.50;;;19.70;99.90;;;;;;5048491;28;20389;-56
2021/07/05 10:23:03;;;;;;;4.60;1.60;;;19.70;99.90;;;;;;5048842;28;20942;-56
2021/07/05 10:25:32;;;;;;;6.40;1.80;;;19.80;99.90;;;;;;5048752;28;20398;-56
2021/07/05 10:27:58;;;;;;;4.00;1.60;;;19.80;99.90;;;;;;5030007;28;20382;-55
2021/07/05 10:30:25;;;;;;;4.28;1.60;;;21.70;99.90;;;;;;5028901;28;20422;-55
2021/07/05 10:32:51;;;;;;;6.50;1.80;;;19.80;99.90;;;;;;5049530;28;20392;-55
2021/07/05 10:35:22;;;;;;;4.10;1.50;;;19.90;99.90;;;;;;5049858;28;20500;-56
2021/07/05 10:38:00;;;;;;;4.63;1.60;;;19.80;99.90;;;;;;5047520;28;20385;-56
2021/07/05 10:40:39;;;;;;;5.43;1.75;;;19.60;99.90;;;;;;5030832;28;20383;-55
2021/07/05 10:43:06;;;;;;;4.00;1.50;;;19.80;99.90;;;;;;5051390;28;20405;-55
2021/07/05 10:45:42;;;;;;;5.57;1.60;;;19.90;99.90;;;;;;5043189;28;20882;-55
2021/07/05 10:48:11;;;;;;;4.00;1.20;;;20.10;99.90;;;;;;5047756;28;20396;-55
2021/07/05 10:50:45;;;;;;;5.30;1.45;;;20.10;99.90;;;;;;5047819;28;20448;-55
2021/07/05 10:53:15;;;;;;;5.70;1.40;;;20.40;99.90;;;;;;5048697;28;20421;-55
2021/07/05 10:55:43;;;;;;;4.60;1.90;;;20.70;99.90;;;;;;5047859;28;20385;-55
2021/07/05 10:58:20;;;;;;;4.53;1.50;;;20.60;99.90;;;;;;5052269;28;20377;-56
2021/07/05 11:00:49;;;;;;;4.00;1.30;;;20.50;99.90;;;;;;5051316;28;20786;-56
2021/07/05 11:03:41;;;;;;;5.70;1.60;;;20.60;99.90;;;;;;5052277;28;20409;-55
2021/07/05 11:06:29;;;;;;;4.10;1.27;;;20.70;99.90;;;;;;5051766;28;20393;-57
2021/07/05 11:08:56;;;;;;;4.80;1.50;;;20.80;99.90;;;;;;5043252;28;20402;-57
2021/07/05 11:11:26;;;;;;;4.40;1.20;;;21.20;99.90;;;;;;5051945;28;20410;-57
2021/07/05 11:14:22;;;;;;;4.20;1.30;;;21.60;99.90;;;;;;5050916;28;20480;-57
2021/07/05 11:17:02;;;;;;;5.55;1.58;;;21.80;99.90;;;;;;5050888;28;20386;-57
2021/07/05 11:20:09;;;;;;;4.15;1.50;;;21.70;99.90;;;;;;5034155;28;20396;-58
2021/07/05 11:22:37;;;;;;;5.00;1.65;;;21.60;99.90;;;;;;5051673;28;20735;-57
2021/07/05 11:25:17;;;;;;;4.60;1.57;;;21.50;99.90;;;;;;5033916;28;20393;-55
2021/07/05 11:27:51;;;;;;;5.30;1.50;;;21.40;99.90;;;;;;5051076;28;20382;-54
2021/07/05 11:30:49;;;;;;;4.25;1.63;;;21.20;99.90;;;;;;5044925;28;20839;-55
2021/07/05 11:33:17;;;;;;;4.40;1.90;;;21.10;99.90;;;;;;5029710;28;20812;-55
2021/07/05 11:35:58;;;;;;;4.63;1.60;;;21.20;99.90;;;;;;5053775;28;20391;-54
2021/07/05 11:38:29;;;;;;;4.70;1.50;;;21.10;99.90;;;;;;5047338;28;20400;-54
2021/07/05 11:40:56;;;;;;;5.80;1.50;;;21.40;99.90;;;;;;5059378;28;20425;-54
2021/07/05 11:44:00;;;;;;;5.20;1.50;;;21.50;99.90;;;;;;5041058;28;20455;-54
2021/07/05 11:46:29;;;;;;;5.00;1.75;;;21.40;99.90;;;;;;5022062;28;20478;-55
2021/07/05 11:48:54;;;;;;;4.40;1.80;;;21.40;99.90;;;;;;5063100;28;20404;-55
2021/07/05 11:51:28;;;;;;;4.30;1.90;;;21.40;99.90;;;;;;5053659;28;20437;-55
2021/07/05 11:54:05;;;;;;;4.72;1.60;;;21.50;99.90;;;;;;5056321;28;20914;-54
2021/07/05 11:56:40;;;;;;;4.80;1.40;;;21.40;99.90;;;;;;5042570;28;20464;-53
2021/07/05 11:59:21;;;;;;;5.65;1.60;;;21.40;99.90;;;;;;5029130;28;20454;-54
2021/07/05 12:01:53;;;;;;;4.72;1.70;;;21.30;99.90;;;;;;5057541;28;20398;-56
2021/07/05 12:04:19;;;;;;;4.70;1.63;;;21.50;99.90;;;;;;5044296;28;20403;-54
2021/07/05 12:06:48;;;;;;;5.00;1.60;;;21.50;99.90;;;;;;5040996;28;20381;-56
2021/07/05 12:09:17;;;;;;;4.00;1.30;;;21.30;99.90;;;;;;5048633;28;20404;-54
2021/07/05 12:11:46;;;;;;;4.20;1.40;;;21.30;99.90;;;;;;5048556;28;20387;-54
2021/07/05 12:14:15;;;;;;;4.05;1.40;;;21.60;99.90;;;;;;5037532;28;20465;-56
2021/07/05 12:16:45;;;;;;;4.80;1.50;;;22.10;99.90;;;;;;5038888;28;20464;-55
2021/07/05 12:19:13;;;;;;;4.60;1.50;;;22.40;99.90;;;;;;5042758;28;20876;-55
2021/07/05 12:21:48;;;;;;;4.15;1.45;;;22.20;99.90;;;;;;5063190;28;20414;-59
2021/07/05 12:24:20;;;;;;;5.00;1.30;;;22.00;99.90;;;;;;5059610;28;20404;-54
2021/07/05 12:26:50;;;;;;;4.53;1.60;;;22.20;99.90;;;;;;5054651;28;20489;-55
2021/07/05 12:29:48;;;;;;;4.40;1.70;;;22.30;99.90;;;;;;5070732;28;20368;-56
2021/07/05 12:32:19;;;;;;;4.35;1.50;;;22.10;99.90;;;;;;5060690;28;20391;-54
2021/07/05 12:34:58;;;;;;;4.40;1.20;;;21.60;99.90;;;;;;5049020;28;20399;-55
2021/07/05 12:37:30;;;;;;;5.00;1.52;;;21.50;99.90;;;;;;5044785;28;20452;-53
2021/07/05 12:40:05;;;;;;;4.18;1.30;;;21.70;99.90;;;;;;5059603;28;20424;-54
2021/07/05 12:42:47;;;;;;;5.05;1.40;;;21.80;99.90;;;;;;5046746;28;20381;-55
2021/07/05 12:45:34;;;;;;;5.10;1.50;;;21.70;99.90;;;;;;5051516;28;20743;-54
2021/07/05 12:48:23;;;;;;;4.20;1.20;;;21.70;99.90;;;;;;5049284;28;20631;-57
2021/07/05 12:51:04;;;;;;;4.03;1.33;;;21.80;99.90;;;;;;5048389;28;20927;-58
2021/07/05 12:53:50;;;;;;;4.95;1.70;;;21.80;99.90;;;;;;5046030;28;20886;-57
2021/07/05 12:56:21;;;;;;;4.05;1.25;;;21.80;99.90;;;;;;5043559;28;20860;-57